Time;durP1;ratioP1;P1;durP2;ratioP2;P2;SDS_P1;SDS_P2;PMS_P1;PMS_P2;Temp;Humidity;BMP_temperature;BMP_pressure;BME280_temperature;BME280_humidity;BME280_pressure;Samples;Min_cycle;Max_cycle;Signal;HPM_P1;HPM_P2
2023/06/02 00:01:28;;;;;;;9.20;2.95;;;10.70;99.90;;;;;;5070442;28;20043;-81
2023/06/02 00:03:55;;;;;;;11.02;2.00;;;10.70;99.90;;;;;;5038176;28;20041;-80
2023/06/02 00:06:22;;;;;;;14.63;2.17;;;10.70;99.90;;;;;;5053898;28;20045;-80
2023/06/02 00:08:48;;;;;;;12.90;2.20;;;10.70;99.90;;;;;;5036931;28;20048;-81
2023/06/02 00:11:15;;;;;;;14.35;2.33;;;10.70;99.90;;;;;;5044652;28;20480;-81
2023/06/02 00:13:42;;;;;;;10.55;2.22;;;10.60;99.90;;;;;;5089652;28;20044;-80
2023/06/02 00:16:09;;;;;;;11.63;2.22;;;10.60;99.90;;;;;;5073314;28;20424;-80
2023/06/02 00:18:37;;;;;;;12.15;2.35;;;10.60;99.90;;;;;;5089160;28;20083;-81
2023/06/02 00:21:05;;;;;;;11.55;2.53;;;10.60;99.90;;;;;;5053489;28;20041;-81
2023/06/02 00:23:32;;;;;;;9.65;2.30;;;10.50;99.90;;;;;;5059206;28;20033;-81
2023/06/02 00:26:00;;;;;;;16.58;2.13;;;10.50;99.90;;;;;;5069965;28;20501;-80
2023/06/02 00:28:26;;;;;;;13.35;2.20;;;10.50;99.90;;;;;;5070264;28;20029;-80
2023/06/02 00:30:53;;;;;;;10.57;2.15;;;10.40;99.90;;;;;;5053172;28;20047;-81
2023/06/02 00:33:20;;;;;;;14.68;2.75;;;10.40;99.90;;;;;;5073134;28;20519;-81
2023/06/02 00:35:47;;;;;;;11.93;2.38;;;10.30;99.90;;;;;;5072656;28;20046;-81
2023/06/02 00:38:14;;;;;;;12.27;2.53;;;10.30;99.90;;;;;;5089769;28;20124;-81
2023/06/02 00:40:41;;;;;;;17.05;3.15;;;10.30;99.90;;;;;;5072956;28;20076;-80
2023/06/02 00:43:08;;;;;;;13.13;1.90;;;10.20;99.90;;;;;;5075067;28;20064;-80
2023/06/02 00:45:34;;;;;;;17.83;2.58;;;10.20;99.90;;;;;;5053014;28;20036;-81
2023/06/02 00:48:01;;;;;;;13.30;2.10;;;10.30;99.90;;;;;;5069561;28;20119;-80
2023/06/02 00:50:28;;;;;;;15.57;2.50;;;10.30;99.90;;;;;;5053218;28;20071;-80
2023/06/02 00:52:57;;;;;;;15.48;3.50;;;10.30;99.90;;;;;;5069726;28;20120;-80
2023/06/02 00:55:28;;;;;;;11.55;2.70;;;10.40;99.90;;;;;;5053315;28;20045;-81
2023/06/02 00:57:56;;;;;;;11.07;2.00;;;10.30;99.90;;;;;;5052565;28;20118;-80
2023/06/02 01:00:23;;;;;;;14.80;2.78;;;10.30;99.90;;;;;;5053314;28;20036;-81
2023/06/02 01:02:50;;;;;;;9.35;2.08;;;10.30;99.90;;;;;;5070375;28;20102;-81
2023/06/02 01:05:19;;;;;;;9.50;2.10;;;10.30;99.90;;;;;;5053244;28;20037;-80
2023/06/02 01:07:47;;;;;;;7.00;1.88;;;10.30;99.90;;;;;;5052765;28;20033;-80
2023/06/02 01:10:16;;;;;;;10.27;2.17;;;10.40;99.90;;;;;;5053072;28;20064;-80
2023/06/02 01:12:44;;;;;;;12.77;2.63;;;10.30;99.90;;;;;;5054132;28;20056;-80
2023/06/02 01:15:11;;;;;;;15.27;2.80;;;10.40;99.90;;;;;;5056432;28;20443;-80
2023/06/02 01:17:41;;;;;;;16.30;2.30;;;10.40;99.90;;;;;;5088989;28;20453;-81
2023/06/02 01:20:10;;;;;;;8.73;1.75;;;10.40;99.90;;;;;;5089732;28;20044;-80
2023/06/02 01:22:49;;;;;;;11.30;2.00;;;10.40;99.90;;;;;;5072645;28;20044;-80
2023/06/02 01:25:25;;;;;;;15.55;2.60;;;10.40;99.90;;;;;;5089394;28;20040;-81
2023/06/02 01:27:52;;;;;;;13.35;2.08;;;10.40;99.90;;;;;;5089226;28;20040;-81
2023/06/02 01:30:20;;;;;;;12.52;2.13;;;10.40;99.90;;;;;;5075244;28;20072;-81
2023/06/02 01:33:19;;;;;;;12.63;2.20;;;10.40;99.90;;;;;;5060054;28;20048;-81
2023/06/02 01:35:48;;;;;;;11.73;2.05;;;10.50;99.90;;;;;;5088801;28;20137;-80
2023/06/02 01:38:17;;;;;;;9.23;1.98;;;10.40;99.90;;;;;;5040319;28;20457;-81
2023/06/02 01:40:45;;;;;;;9.38;1.65;;;10.40;99.90;;;;;;5072768;28;20033;-81
2023/06/02 01:43:13;;;;;;;11.98;2.50;;;10.50;99.90;;;;;;5072926;28;20048;-81
2023/06/02 01:45:44;;;;;;;12.77;3.13;;;10.40;99.90;;;;;;5073585;28;20099;-81
2023/06/02 01:48:12;;;;;;;14.73;2.30;;;10.40;99.90;;;;;;5073084;28;20525;-81
2023/06/02 01:50:40;;;;;;;12.85;1.98;;;10.40;99.90;;;;;;5057278;28;20039;-80
2023/06/02 01:53:07;;;;;;;14.65;2.53;;;10.50;99.90;;;;;;5072974;28;20087;-80
2023/06/02 01:55:34;;;;;;;19.08;2.13;;;10.50;99.90;;;;;;5072548;28;20072;-81
2023/06/02 01:58:01;;;;;;;9.93;1.95;;;10.50;99.90;;;;;;5039942;28;20103;-81
2023/06/02 02:00:28;;;;;;;16.17;2.67;;;10.50;99.90;;;;;;5089350;28;20077;-80
2023/06/02 02:02:55;;;;;;;13.48;2.15;;;10.50;99.90;;;;;;5055589;28;20080;-81
2023/06/02 02:05:21;;;;;;;14.23;2.72;;;10.50;99.90;;;;;;5069002;28;20037;-80
2023/06/02 02:07:50;;;;;;;17.00;2.08;;;10.50;99.90;;;;;;5072153;28;20040;-81
2023/06/02 02:10:18;;;;;;;11.75;2.25;;;10.50;99.90;;;;;;5040717;28;20040;-81
2023/06/02 02:12:45;;;;;;;12.23;2.58;;;10.50;99.90;;;;;;5072379;28;20041;-82
2023/06/02 02:15:12;;;;;;;10.60;2.33;;;10.50;99.90;;;;;;5056012;28;20142;-81
2023/06/02 02:17:44;;;;;;;11.85;2.15;;;10.60;99.90;;;;;;5073530;28;20094;-80
2023/06/02 02:20:18;;;;;;;13.23;2.33;;;10.50;99.90;;;;;;5069821;28;20093;-81
2023/06/02 02:22:46;;;;;;;17.92;2.40;;;10.50;99.90;;;;;;5075485;28;20037;-80
2023/06/02 02:25:13;;;;;;;12.05;2.17;;;10.50;99.90;;;;;;5075451;28;20040;-81
2023/06/02 02:27:40;;;;;;;13.38;2.58;;;10.50;99.90;;;;;;5071857;28;20091;-80
2023/06/02 02:30:08;;;;;;;13.85;2.13;;;10.50;99.90;;;;;;5072065;28;20045;-81
2023/06/02 02:32:37;;;;;;;15.27;2.95;;;10.50;99.90;;;;;;5052246;28;20047;-80
2023/06/02 02:35:05;;;;;;;10.55;2.35;;;10.60;99.90;;;;;;5088077;28;20047;-81
2023/06/02 02:37:31;;;;;;;10.82;2.38;;;10.60;99.90;;;;;;5055522;28;20041;-81
2023/06/02 02:39:59;;;;;;;15.80;2.50;;;10.60;99.90;;;;;;5055125;28;20133;-81
2023/06/02 02:42:25;;;;;;;14.20;1.83;;;10.50;99.90;;;;;;5054453;28;20489;-81
2023/06/02 02:44:52;;;;;;;17.27;2.33;;;10.60;99.90;;;;;;5039290;28;20178;-81
2023/06/02 02:47:20;;;;;;;17.00;3.38;;;10.60;99.90;;;;;;5055331;28;20037;-81
2023/06/02 02:49:48;;;;;;;11.90;1.90;;;10.60;99.90;;;;;;5055324;28;20037;-81
2023/06/02 02:52:14;;;;;;;17.35;2.22;;;10.60;99.90;;;;;;5054880;28;20072;-81
2023/06/02 02:54:41;;;;;;;14.07;2.70;;;10.60;99.90;;;;;;5055118;28;20458;-81
2023/06/02 02:57:08;;;;;;;14.88;2.70;;;10.60;99.90;;;;;;5039076;28;20044;-80
2023/06/02 02:59:35;;;;;;;12.80;2.50;;;10.60;99.90;;;;;;5055088;28;20536;-80
2023/06/02 03:02:05;;;;;;;18.92;2.67;;;10.60;99.90;;;;;;5038933;28;20049;-81
2023/06/02 03:04:32;;;;;;;14.95;2.33;;;10.60;99.90;;;;;;5055430;28;20037;-80
2023/06/02 03:06:59;;;;;;;10.77;2.00;;;10.60;99.90;;;;;;5055741;28;20090;-81
2023/06/02 03:09:25;;;;;;;10.05;2.30;;;10.60;99.90;;;;;;5064557;28;20468;-80
2023/06/02 03:11:52;;;;;;;20.60;2.40;;;10.60;99.90;;;;;;5041577;28;20508;-81
2023/06/02 03:14:19;;;;;;;15.35;2.22;;;10.60;99.90;;;;;;5057714;28;20793;-81
2023/06/02 03:16:45;;;;;;;14.15;2.10;;;10.60;99.90;;;;;;5074276;28;20045;-81
2023/06/02 03:19:15;;;;;;;15.00;2.40;;;10.60;99.90;;;;;;5087585;28;20636;-81
2023/06/02 03:21:42;;;;;;;14.57;3.30;;;10.70;99.90;;;;;;5038790;28;20445;-81
2023/06/02 03:24:11;;;;;;;12.50;2.05;;;10.60;99.90;;;;;;5053843;28;20493;-81
2023/06/02 03:26:42;;;;;;;12.98;2.42;;;10.70;99.90;;;;;;5087171;28;20045;-81
2023/06/02 03:29:09;;;;;;;15.52;2.55;;;10.70;99.90;;;;;;5072285;28;20037;-80
2023/06/02 03:31:36;;;;;;;12.23;2.63;;;10.70;99.90;;;;;;5090569;28;20105;-80
2023/06/02 03:34:04;;;;;;;15.88;2.88;;;10.70;99.90;;;;;;5056861;28;20040;-81
2023/06/02 03:36:38;;;;;;;18.17;2.58;;;10.70;99.90;;;;;;5087073;28;20052;-81
2023/06/02 03:39:06;;;;;;;9.35;2.17;;;10.70;99.90;;;;;;5087098;28;20479;-81
2023/06/02 03:41:34;;;;;;;13.77;2.83;;;10.70;99.90;;;;;;5086509;28;20056;-80
2023/06/02 03:44:02;;;;;;;12.32;2.30;;;10.70;99.90;;;;;;5053873;28;20068;-80
2023/06/02 03:46:29;;;;;;;14.55;2.20;;;10.70;99.90;;;;;;5053730;28;20041;-79
2023/06/02 03:48:56;;;;;;;11.55;2.38;;;10.70;99.90;;;;;;5087355;28;20433;-79
2023/06/02 03:51:23;;;;;;;15.35;2.50;;;10.70;99.90;;;;;;5073159;28;20190;-79
2023/06/02 03:53:49;;;;;;;16.60;2.45;;;10.70;99.90;;;;;;5057009;28;20043;-80
2023/06/02 03:56:16;;;;;;;14.27;1.90;;;10.80;99.90;;;;;;5090633;28;20042;-80
2023/06/02 03:58:43;;;;;;;18.27;2.38;;;10.80;99.90;;;;;;5074299;28;20044;-79
2023/06/02 04:01:12;;;;;;;13.38;2.85;;;10.80;99.90;;;;;;5067767;28;20114;-79
2023/06/02 04:03:41;;;;;;;14.32;2.22;;;10.80;99.90;;;;;;5070297;28;20041;-80
2023/06/02 04:06:08;;;;;;;11.27;2.72;;;10.80;99.90;;;;;;5102998;28;20129;-79
2023/06/02 04:08:35;;;;;;;15.60;2.70;;;10.80;99.90;;;;;;5070230;28;20095;-80
2023/06/02 04:11:03;;;;;;;15.88;2.10;;;10.90;99.90;;;;;;5086703;28;20076;-80
2023/06/02 04:13:30;;;;;;;15.07;2.58;;;10.80;99.90;;;;;;5086589;28;20047;-80
2023/06/02 04:15:58;;;;;;;13.07;2.10;;;10.90;99.90;;;;;;5069806;28;20517;-80
2023/06/02 04:18:26;;;;;;;17.23;2.60;;;10.90;99.90;;;;;;5070071;28;20041;-80
2023/06/02 04:20:53;;;;;;;12.35;3.05;;;10.80;99.90;;;;;;5070269;28;20136;-80
2023/06/02 04:23:20;;;;;;;14.02;2.42;;;10.90;99.90;;;;;;5054966;28;20124;-80
2023/06/02 04:25:46;;;;;;;16.33;2.53;;;10.90;99.90;;;;;;5037149;28;20041;-80
2023/06/02 04:28:13;;;;;;;16.55;2.67;;;10.90;99.90;;;;;;5053068;28;20037;-80
2023/06/02 04:30:40;;;;;;;10.77;2.15;;;10.90;99.90;;;;;;5053729;28;20131;-79
2023/06/02 04:33:08;;;;;;;15.52;2.92;;;10.90;99.90;;;;;;5036720;28;20041;-79
2023/06/02 04:35:35;;;;;;;15.55;3.08;;;11.00;99.90;;;;;;5053534;28;20386;-80
2023/06/02 04:38:03;;;;;;;16.50;2.83;;;11.00;99.90;;;;;;5070044;28;20041;-80
2023/06/02 04:40:30;;;;;;;15.48;2.97;;;11.00;99.90;;;;;;5053156;28;20052;-79
2023/06/02 04:42:58;;;;;;;16.17;3.00;;;11.10;99.90;;;;;;5056557;28;20123;-79
2023/06/02 04:45:25;;;;;;;24.10;3.10;;;11.10;99.90;;;;;;5053093;28;20121;-79
2023/06/02 04:47:52;;;;;;;14.02;2.80;;;11.10;99.90;;;;;;5053086;28;20565;-80
2023/06/02 04:50:18;;;;;;;14.60;2.78;;;11.10;99.90;;;;;;5070937;28;20056;-79
2023/06/02 04:52:45;;;;;;;14.52;2.47;;;11.20;99.90;;;;;;5076444;28;20041;-79
2023/06/02 04:55:12;;;;;;;15.63;3.05;;;11.20;99.90;;;;;;5060559;28;20498;-80
2023/06/02 04:57:39;;;;;;;18.50;3.22;;;11.20;99.90;;;;;;5053104;28;20936;-79
2023/06/02 05:00:08;;;;;;;13.52;3.15;;;11.30;99.90;;;;;;5053540;28;20047;-79
2023/06/02 05:02:35;;;;;;;12.68;2.60;;;11.30;99.90;;;;;;5085600;28;20045;-80
2023/06/02 05:05:02;;;;;;;13.73;2.70;;;11.30;99.90;;;;;;5049849;28;20037;-79
2023/06/02 05:07:29;;;;;;;14.68;2.78;;;11.30;99.90;;;;;;5085601;28;20041;-79
2023/06/02 05:09:56;;;;;;;10.88;2.75;;;11.40;99.90;;;;;;5069022;28;20187;-79
2023/06/02 05:12:23;;;;;;;8.70;2.33;;;11.40;99.90;;;;;;5035993;28;20053;-80
2023/06/02 05:14:49;;;;;;;16.73;2.88;;;11.50;99.90;;;;;;5068985;28;20135;-79
2023/06/02 05:17:22;;;;;;;17.88;3.10;;;11.50;99.90;;;;;;5075010;28;20421;-79
2023/06/02 05:19:50;;;;;;;15.65;3.55;;;11.50;99.90;;;;;;5052577;28;20049;-79
2023/06/02 05:22:17;;;;;;;17.35;3.00;;;11.50;99.90;;;;;;5068426;28;20048;-80
2023/06/02 05:24:44;;;;;;;14.10;2.40;;;11.60;99.90;;;;;;5057033;28;20037;-79
2023/06/02 05:27:11;;;;;;;16.80;4.07;;;11.60;99.90;;;;;;5061107;28;20047;-79
2023/06/02 05:29:38;;;;;;;16.63;3.17;;;11.60;99.90;;;;;;5069047;28;20043;-79
2023/06/02 05:32:06;;;;;;;19.35;3.17;;;11.70;99.90;;;;;;5036639;28;20045;-79
2023/06/02 05:34:33;;;;;;;13.40;2.83;;;11.70;99.90;;;;;;5035982;28;20116;-80
2023/06/02 05:37:00;;;;;;;12.45;3.53;;;11.80;99.90;;;;;;5036345;28;20124;-79
2023/06/02 05:39:27;;;;;;;17.23;3.80;;;11.90;99.90;;;;;;5069058;28;20040;-79
2023/06/02 05:41:54;;;;;;;16.70;3.50;;;11.90;99.90;;;;;;5052505;28;20041;-80
2023/06/02 05:44:21;;;;;;;19.65;3.63;;;11.90;99.90;;;;;;5036037;28;20029;-79
2023/06/02 05:46:47;;;;;;;16.25;3.90;;;12.00;99.90;;;;;;5052485;28;20132;-80
2023/06/02 05:49:14;;;;;;;19.10;3.42;;;12.10;99.90;;;;;;5036033;28;20037;-79
2023/06/02 05:51:41;;;;;;;24.33;3.80;;;12.20;99.90;;;;;;5035647;28;20037;-79
2023/06/02 05:54:08;;;;;;;19.77;3.47;;;12.30;99.90;;;;;;5052523;28;20462;-80
2023/06/02 05:56:35;;;;;;;19.60;4.18;;;12.40;99.90;;;;;;5062972;28;20044;-80
2023/06/02 05:59:02;;;;;;;21.27;3.63;;;12.60;99.90;;;;;;5068657;28;20064;-80
2023/06/02 06:01:29;;;;;;;26.98;5.10;;;12.70;99.90;;;;;;5068509;28;20113;-80
2023/06/02 06:03:55;;;;;;;21.45;3.70;;;12.80;99.90;;;;;;5052138;28;20131;-80
2023/06/02 06:06:22;;;;;;;20.05;3.78;;;12.80;99.90;;;;;;5056749;28;20134;-80
2023/06/02 06:08:49;;;;;;;21.38;3.70;;;12.90;99.90;;;;;;5051907;28;20037;-80
2023/06/02 06:11:17;;;;;;;20.45;4.13;;;12.90;99.90;;;;;;5085458;28;20091;-80
2023/06/02 06:13:43;;;;;;;22.25;3.97;;;13.10;99.90;;;;;;5068409;28;20123;-79
2023/06/02 06:16:10;;;;;;;21.40;4.15;;;13.20;99.90;;;;;;5038052;28;20124;-80
2023/06/02 06:18:37;;;;;;;15.38;3.38;;;13.30;99.90;;;;;;5072736;28;20081;-80
2023/06/02 06:21:04;;;;;;;15.48;3.15;;;13.30;99.90;;;;;;5074199;28;20161;-79
2023/06/02 06:23:30;;;;;;;23.35;4.10;;;13.40;99.90;;;;;;5077888;28;20036;-80
2023/06/02 06:25:57;;;;;;;20.52;3.35;;;13.40;99.90;;;;;;5097317;28;20190;-80
2023/06/02 06:28:24;;;;;;;20.80;4.47;;;13.40;99.90;;;;;;5071649;28;20087;-80
2023/06/02 06:30:50;;;;;;;20.02;3.90;;;13.50;99.90;;;;;;5058132;28;20046;-80
2023/06/02 06:33:17;;;;;;;15.52;3.45;;;13.60;99.90;;;;;;5075331;28;20145;-80
2023/06/02 06:35:44;;;;;;;17.58;3.75;;;13.60;99.90;;;;;;5052510;28;20036;-81
2023/06/02 06:38:10;;;;;;;21.30;4.05;;;13.70;99.90;;;;;;5048204;28;20127;-80
2023/06/02 06:40:37;;;;;;;17.00;3.30;;;13.80;99.90;;;;;;5038736;28;20487;-80
2023/06/02 06:43:04;;;;;;;21.30;4.05;;;14.00;99.90;;;;;;5038699;28;20132;-80
2023/06/02 06:45:34;;;;;;;17.00;3.33;;;14.20;99.90;;;;;;5038274;28;20544;-81
2023/06/02 06:48:01;;;;;;;18.85;3.28;;;14.30;99.90;;;;;;5056033;28;20485;-81
2023/06/02 06:50:28;;;;;;;17.35;3.47;;;14.30;99.90;;;;;;5042223;28;20120;-81
2023/06/02 06:52:54;;;;;;;12.68;3.13;;;14.40;99.90;;;;;;5057849;28;20037;-81
2023/06/02 06:55:21;;;;;;;17.35;3.72;;;14.40;99.90;;;;;;5055089;28;20706;-80
2023/06/02 06:57:48;;;;;;;13.02;3.28;;;14.50;99.90;;;;;;5038478;28;20041;-81
2023/06/02 07:00:15;;;;;;;12.98;2.80;;;14.60;99.90;;;;;;5039351;28;20088;-81
2023/06/02 07:02:43;;;;;;;20.15;3.35;;;14.60;99.90;;;;;;5054628;28;20082;-80
2023/06/02 07:05:10;;;;;;;18.30;3.50;;;14.60;99.90;;;;;;5082154;28;20037;-80
2023/06/02 07:07:37;;;;;;;19.08;3.50;;;14.50;99.90;;;;;;5041633;28;20170;-80
2023/06/02 07:10:03;;;;;;;21.85;4.05;;;14.50;99.90;;;;;;5063798;28;20100;-80
2023/06/02 07:12:30;;;;;;;15.93;3.53;;;14.50;99.90;;;;;;5070680;28;20413;-81
2023/06/02 07:14:57;;;;;;;20.08;3.75;;;14.50;99.90;;;;;;5054573;28;20405;-80
2023/06/02 07:17:23;;;;;;;19.55;3.80;;;14.50;99.90;;;;;;5070589;28;20194;-79
2023/06/02 07:19:50;;;;;;;18.27;3.33;;;14.60;99.90;;;;;;5089917;28;20037;-79
2023/06/02 07:22:17;;;;;;;12.90;2.83;;;14.70;99.90;;;;;;5054288;28;20048;-79
2023/06/02 07:24:43;;;;;;;13.07;2.60;;;14.80;99.90;;;;;;5054218;28;20047;-79
2023/06/02 07:27:13;;;;;;;14.52;2.97;;;14.90;99.90;;;;;;5070307;28;20120;-79
2023/06/02 07:29:40;;;;;;;13.88;2.78;;;15.00;99.90;;;;;;5072592;28;20051;-81
2023/06/02 07:32:08;;;;;;;15.55;2.72;;;15.20;99.90;;;;;;5070947;28;20043;-81
2023/06/02 07:34:37;;;;;;;14.10;2.75;;;15.30;99.90;;;;;;5070605;28;20094;-81
2023/06/02 07:37:04;;;;;;;16.88;2.88;;;15.40;99.90;;;;;;5054424;28;20055;-81
2023/06/02 07:39:31;;;;;;;14.57;2.67;;;15.40;99.90;;;;;;5087182;28;20033;-81
2023/06/02 07:41:57;;;;;;;16.13;3.35;;;15.40;99.90;;;;;;5071902;28;20099;-84
2023/06/02 07:44:24;;;;;;;13.90;3.17;;;15.40;99.90;;;;;;5039052;28;20083;-89
2023/06/02 07:46:51;;;;;;;13.15;2.30;;;15.50;99.90;;;;;;5054966;28;20098;-85
2023/06/02 07:49:17;;;;;;;13.15;2.67;;;15.60;99.90;;;;;;5038408;28;20090;-85
2023/06/02 07:51:44;;;;;;;11.68;2.65;;;15.60;99.90;;;;;;5054460;28;20041;-85
2023/06/02 07:54:11;;;;;;;14.65;2.50;;;15.70;99.90;;;;;;5070753;28;20045;-85
2023/06/02 07:56:38;;;;;;;12.80;2.50;;;15.60;99.90;;;;;;5070352;28;20075;-85
2023/06/02 07:59:05;;;;;;;14.02;2.58;;;15.80;99.90;;;;;;5038405;28;20048;-86
2023/06/02 08:01:32;;;;;;;17.02;2.92;;;16.00;99.90;;;;;;5054339;28;20131;-85
2023/06/02 08:04:01;;;;;;;16.30;2.90;;;16.00;99.90;;;;;;5038433;28;20044;-85
2023/06/02 08:06:28;;;;;;;17.27;2.95;;;16.10;99.90;;;;;;5037656;28;20041;-85
2023/06/02 08:08:55;;;;;;;17.27;2.88;;;16.10;99.90;;;;;;5037751;28;20481;-85
2023/06/02 08:11:22;;;;;;;13.40;3.10;;;16.20;99.90;;;;;;5053890;28;20162;-86
2023/06/02 08:13:49;;;;;;;14.82;3.08;;;16.40;99.90;;;;;;5054075;28;20485;-85
2023/06/02 08:16:16;;;;;;;12.95;2.63;;;16.40;99.90;;;;;;5054302;28;20043;-85
2023/06/02 08:18:42;;;;;;;13.55;2.80;;;16.40;99.90;;;;;;5053510;28;20468;-86
2023/06/02 08:21:09;;;;;;;14.60;2.40;;;16.50;99.90;;;;;;5037458;28;20394;-86
2023/06/02 08:23:36;;;;;;;11.77;2.55;;;16.60;99.90;;;;;;5037604;28;20401;-86
2023/06/02 08:26:03;;;;;;;9.95;2.30;;;16.70;99.90;;;;;;5053887;28;20041;-85
2023/06/02 08:28:33;;;;;;;10.85;2.70;;;16.70;99.90;;;;;;5054170;28;20468;-86
2023/06/02 08:31:01;;;;;;;12.38;2.30;;;16.80;99.90;;;;;;5037842;28;20041;-86
2023/06/02 08:33:27;;;;;;;13.95;2.45;;;16.90;99.90;;;;;;5053633;28;20037;-85
2023/06/02 08:35:55;;;;;;;9.52;2.20;;;17.10;99.90;;;;;;5036867;28;20501;-85
2023/06/02 08:38:22;;;;;;;7.80;2.00;;;17.20;99.90;;;;;;5037218;28;20056;-85
2023/06/02 08:40:49;;;;;;;11.18;2.00;;;17.30;99.90;;;;;;5037105;28;20389;-85
2023/06/02 08:43:15;;;;;;;7.53;2.20;;;17.40;99.90;;;;;;5037047;28;20041;-86
2023/06/02 08:45:44;;;;;;;8.98;2.00;;;17.50;99.90;;;;;;5036738;28;20585;-86
2023/06/02 08:48:17;;;;;;;9.35;2.05;;;17.60;99.90;;;;;;5070120;28;20036;-85
2023/06/02 08:50:48;;;;;;;6.50;1.60;;;17.70;99.90;;;;;;5069730;28;20044;-86
2023/06/02 08:53:16;;;;;;;4.97;1.30;;;17.80;99.90;;;;;;5069974;28;20037;-86
2023/06/02 08:55:47;;;;;;;6.60;1.50;;;17.90;99.90;;;;;;5052983;28;20255;-86
2023/06/02 08:58:14;;;;;;;5.20;1.50;;;18.00;99.90;;;;;;5086580;28;20049;-85
2023/06/02 09:00:40;;;;;;;7.38;1.40;;;18.10;99.90;;;;;;5053467;28;20037;-85
2023/06/02 09:03:12;;;;;;;7.95;1.38;;;18.20;99.90;;;;;;5036359;28;20451;-85
2023/06/02 09:05:38;;;;;;;7.03;1.30;;;18.20;99.90;;;;;;5069588;28;20090;-85
2023/06/02 09:08:13;;;;;;;6.00;1.35;;;18.30;99.90;;;;;;5036861;28;20044;-85
2023/06/02 09:10:41;;;;;;;4.32;1.15;;;18.30;99.90;;;;;;5069769;28;20082;-85
2023/06/02 09:13:09;;;;;;;4.30;1.33;;;18.40;99.90;;;;;;5069936;28;20044;-86
2023/06/02 09:15:54;;;;;;;4.43;1.00;;;18.60;99.90;;;;;;5036917;28;20476;-86
2023/06/02 09:18:20;;;;;;;5.45;1.30;;;18.70;99.90;;;;;;5072253;28;20049;-85
2023/06/02 09:20:48;;;;;;;7.28;1.30;;;18.70;99.90;;;;;;5083462;28;20908;-86
2023/06/02 09:23:15;;;;;;;6.13;1.35;;;18.80;99.90;;;;;;5044403;28;20056;-85
2023/06/02 09:25:43;;;;;;;3.78;1.38;;;18.90;99.90;;;;;;5044849;28;20024;-82
2023/06/02 09:28:09;;;;;;;5.20;1.20;;;18.90;99.90;;;;;;5039074;28;20041;-82
2023/06/02 09:30:36;;;;;;;3.05;1.20;;;18.90;99.90;;;;;;5046518;28;20043;-80
2023/06/02 09:33:14;;;;;;;3.75;1.27;;;19.00;99.90;;;;;;5055867;28;20127;-80
2023/06/02 09:35:44;;;;;;;2.40;1.13;;;19.00;99.90;;;;;;5089886;28;20044;-79
2023/06/02 09:38:17;;;;;;;5.25;1.25;;;19.10;99.90;;;;;;5105746;28;20496;-82
2023/06/02 09:40:44;;;;;;;6.38;1.23;;;19.20;99.90;;;;;;5089643;28;20040;-79
2023/06/02 09:43:12;;;;;;;4.57;1.25;;;19.30;99.90;;;;;;5072649;28;20072;-80
2023/06/02 09:45:59;;;;;;;9.05;1.10;;;19.30;99.90;;;;;;5073123;28;20033;-79
2023/06/02 09:48:27;;;;;;;4.40;1.20;;;19.30;99.90;;;;;;5089341;28;20068;-79
2023/06/02 09:50:55;;;;;;;4.13;0.93;;;19.40;99.90;;;;;;5074532;28;20036;-79
2023/06/02 09:53:22;;;;;;;5.28;1.20;;;19.60;99.90;;;;;;5109726;28;20421;-79
2023/06/02 09:55:50;;;;;;;2.45;1.08;;;19.60;99.90;;;;;;5060164;28;20493;-80
2023/06/02 09:58:17;;;;;;;3.45;1.10;;;19.70;99.90;;;;;;5093116;28;20036;-79
2023/06/02 10:00:44;;;;;;;5.55;1.25;;;19.70;99.90;;;;;;5076580;28;20044;-80
2023/06/02 10:03:11;;;;;;;4.88;1.20;;;19.60;99.90;;;;;;5075633;28;20040;-80
2023/06/02 10:05:41;;;;;;;5.95;1.27;;;19.60;99.90;;;;;;5059848;28;20028;-80
2023/06/02 10:08:28;;;;;;;2.13;0.90;;;19.70;99.90;;;;;;5092928;28;20079;-84
2023/06/02 10:11:21;;;;;;;4.60;1.00;;;19.70;99.90;;;;;;5092021;28;20052;-85
2023/06/02 10:13:48;;;;;;;4.43;1.05;;;19.80;99.40;;;;;;5094198;28;20032;-84
2023/06/02 10:16:50;;;;;;;3.83;1.10;;;19.90;99.90;;;;;;5093385;28;20106;-85
2023/06/02 10:19:38;;;;;;;4.93;1.25;;;20.00;99.00;;;;;;5097187;28;20045;-87
2023/06/02 10:22:26;;;;;;;2.90;1.00;;;20.10;99.40;;;;;;5096745;28;20052;-87
2023/06/02 10:25:15;;;;;;;4.43;1.10;;;20.20;98.70;;;;;;5093446;28;20056;-89
2023/06/02 10:27:44;;;;;;;8.00;1.20;;;20.30;96.60;;;;;;5093386;28;20080;-88
2023/06/02 10:30:11;;;;;;;6.97;1.40;;;20.50;98.40;;;;;;5091878;28;20503;-87
2023/06/02 10:32:47;;;;;;;3.25;1.10;;;20.50;98.00;;;;;;5108731;28;20162;-85
2023/06/02 10:35:15;;;;;;;2.83;1.00;;;20.50;96.50;;;;;;5073276;28;20440;-88
2023/06/02 10:37:43;;;;;;;6.68;1.23;;;20.70;97.90;;;;;;5075377;28;20045;-87
2023/06/02 10:40:11;;;;;;;2.38;1.00;;;20.80;98.00;;;;;;5060132;28;20068;-88
2023/06/02 10:42:58;;;;;;;4.05;1.10;;;20.80;97.80;;;;;;5085793;28;20109;-87
2023/06/02 10:45:34;;;;;;;2.97;1.00;;;20.90;97.60;;;;;;5093849;28;20076;-90
2023/06/02 10:48:01;;;;;;;4.47;1.08;;;20.90;97.40;;;;;;5092659;28;20044;-88
2023/06/02 10:50:54;;;;;;;4.65;1.20;;;21.00;97.30;;;;;;5075992;28;20045;-88
2023/06/02 10:53:21;;;;;;;2.95;1.20;;;21.00;96.70;;;;;;5092973;28;20043;-89
2023/06/02 10:55:48;;;;;;;7.45;1.25;;;21.20;97.40;;;;;;5060059;28;20127;-87
2023/06/02 10:58:15;;;;;;;4.05;1.13;;;21.10;97.10;;;;;;5092588;28;20083;-85
2023/06/02 11:00:45;;;;;;;4.47;1.35;;;21.20;97.10;;;;;;5067569;28;20047;-85
2023/06/02 11:03:15;;;;;;;3.95;1.50;;;21.20;96.90;;;;;;5038475;28;20132;-85
2023/06/02 11:05:43;;;;;;;5.03;1.40;;;21.20;96.40;;;;;;5071606;28;20489;-88
2023/06/02 11:08:36;;;;;;;6.03;1.50;;;21.20;96.00;;;;;;5039030;28;20086;-85
2023/06/02 11:11:04;;;;;;;4.18;1.35;;;21.10;96.80;;;;;;5071631;28;20814;-86
2023/06/02 11:13:50;;;;;;;5.10;1.60;;;21.30;97.50;;;;;;5071654;28;20049;-87
2023/06/02 11:16:17;;;;;;;4.55;1.75;;;21.30;97.80;;;;;;5071136;28;20041;-87
2023/06/02 11:18:44;;;;;;;3.25;1.25;;;21.40;97.70;;;;;;5054998;28;20114;-84
2023/06/02 11:21:22;;;;;;;7.63;1.80;;;21.20;97.80;;;;;;5042188;28;20048;-85
2023/06/02 11:23:49;;;;;;;6.05;2.00;;;21.00;97.70;;;;;;5097079;28;20041;-85
2023/06/02 11:26:21;;;;;;;5.63;1.60;;;21.00;98.40;;;;;;5070037;28;20040;-85
2023/06/02 11:28:47;;;;;;;9.18;1.70;;;21.20;98.60;;;;;;5087622;28;20103;-86
2023/06/02 11:31:19;;;;;;;6.03;1.65;;;21.10;98.60;;;;;;5053922;28;20028;-85
2023/06/02 11:33:48;;;;;;;7.05;1.67;;;20.70;98.60;;;;;;5066684;28;20068;-85
2023/06/02 11:36:24;;;;;;;6.50;1.88;;;20.40;99.10;;;;;;5070685;28;20037;-85
2023/06/02 11:39:00;;;;;;;7.90;1.80;;;20.30;99.40;;;;;;5055600;28;20485;-86
2023/06/02 11:41:27;;;;;;;3.78;1.77;;;20.30;99.40;;;;;;5055319;28;20630;-86
2023/06/02 11:44:04;;;;;;;7.18;1.65;;;20.30;99.90;;;;;;5047149;28;20508;-85
2023/06/02 11:46:31;;;;;;;3.50;1.60;;;20.30;99.80;;;;;;5090849;28;20024;-87
2023/06/02 11:48:57;;;;;;;5.07;1.52;;;20.40;99.90;;;;;;5074647;28;20066;-85
2023/06/02 11:51:24;;;;;;;5.40;1.73;;;20.60;99.80;;;;;;5090459;28;20036;-85
2023/06/02 11:53:59;;;;;;;6.32;1.77;;;20.70;99.50;;;;;;5041825;28;20493;-85
2023/06/02 11:56:26;;;;;;;4.60;1.58;;;20.60;98.80;;;;;;5070666;28;20041;-87
2023/06/02 11:58:53;;;;;;;5.95;1.58;;;20.50;99.20;;;;;;5047415;28;20076;-86
2023/06/02 12:01:21;;;;;;;5.10;1.65;;;20.60;99.20;;;;;;5048405;28;20036;-87
2023/06/02 12:04:01;;;;;;;5.18;1.60;;;20.70;98.80;;;;;;5084934;28;20720;-86
2023/06/02 12:06:29;;;;;;;7.07;1.60;;;20.60;98.30;;;;;;5070826;28;20041;-86
2023/06/02 12:08:56;;;;;;;5.47;1.42;;;20.40;99.00;;;;;;5087530;28;20044;-85
2023/06/02 12:11:23;;;;;;;5.72;1.80;;;20.30;99.10;;;;;;5058718;28;20041;-85
2023/06/02 12:14:10;;;;;;;6.70;1.48;;;20.10;99.00;;;;;;5064674;28;20036;-85
2023/06/02 12:16:43;;;;;;;7.35;2.00;;;20.10;99.00;;;;;;5061461;28;20182;-85
2023/06/02 12:19:20;;;;;;;6.00;1.58;;;19.90;99.20;;;;;;5069560;28;20056;-86
2023/06/02 12:21:50;;;;;;;4.22;1.45;;;20.00;99.20;;;;;;5069831;28;20044;-84
2023/06/02 12:24:30;;;;;;;5.47;1.58;;;20.10;99.20;;;;;;5069366;28;20041;-85
2023/06/02 12:26:57;;;;;;;6.82;1.70;;;20.10;98.70;;;;;;5054016;28;20033;-86
2023/06/02 12:29:24;;;;;;;4.43;1.65;;;20.00;99.40;;;;;;5070075;28;20044;-87
2023/06/02 12:31:59;;;;;;;3.67;1.80;;;19.90;99.40;;;;;;5069912;28;20043;-85
2023/06/02 12:34:27;;;;;;;4.70;1.80;;;19.70;99.30;;;;;;5071083;28;20044;-85
2023/06/02 12:36:53;;;;;;;3.97;1.77;;;19.50;99.40;;;;;;5052806;28;20094;-85
2023/06/02 12:39:21;;;;;;;7.10;2.25;;;19.40;99.60;;;;;;5053263;28;20041;-87
2023/06/02 12:41:47;;;;;;;7.20;2.10;;;19.30;99.60;;;;;;5037805;28;20049;-85
2023/06/02 12:44:14;;;;;;;6.22;2.20;;;19.30;99.90;;;;;;5036386;28;20051;-86
2023/06/02 12:46:41;;;;;;;7.03;2.00;;;19.40;99.90;;;;;;5036699;28;20037;-85
2023/06/02 12:49:09;;;;;;;8.18;2.30;;;19.40;99.90;;;;;;5053713;28;20432;-87